Airfield :
LOGIN :

Register | Disclaimer

   EN    FR    IT 

 










Legend :    VFR   Marginal VFR   IFR   Intensive IFR   Very Intensive IFR
Visi :
Ceiling :
>= 8 km
>= 3000ft
5 to 8 km
1000 to 3000 ft
1500m to 5 km
500 to 1000 ft
800 to 1500m
200 to 500 ft
< 800m
< 200 ft
Symbols :   Thunderstorms  Fog  Heavy snow  Heavy precipitations  Wind > 20 kt
SIGMETs :     Misc.  Thunderstorms  Icing  Turbulence  Mountain Waves  Volcanic Ashes






- Airport Elevation : 72 ft
- IATA code : UDE


EHVK - Volkel Airbase

CURRENT METAR :
  • 272225Z AUTO 21005KT 9999 NCD 10/09 Q1020 BLU

EXPIRED METARs :
  • 272155Z AUTO 21005KT 9999 NCD 11/09 Q1020 BLU
  • 272125Z AUTO 22006KT 9999 NCD 11/10 Q1020 BLU
  • 272108Z AUTO 21006KT 180V240 9999 SCT036 SCT042 BKN046 13/11 Q1019 BLU
  • 272055Z AUTO 22005KT 190V250 9999 SCT035 BKN039 OVC047 12/11 Q1019 BLU
  • 272040Z AUTO 23005KT 190V250 2800 BR FEW030 BKN040 OVC045 12/11 Q1019 YLO
  • 272033Z AUTO 22005KT 1200 RA FEW030 BKN034 BKN040 12/11 Q1019 AMB
  • 272025Z AUTO 22005KT 3200 BR SCT047 BKN055 OVC061 12/11 Q1019 YLO
  • 272015Z AUTO 22004KT 6000 BR BKN049 12/11 Q1019 WHT
  • 271955Z AUTO 22003KT 9999 SCT057 12/11 Q1018 BLU

TAF TAF EHVK
Valid from the 27 at 21:00 until the 28 at 09:00 UTC


272000Z 2721/2809 22003KT CAVOK
PROB40 2800/2806 4000 BR



MET'MAP, your aeronautical weather chart ! - Copyright ORBIFLY December 2007 - Disclaimer

ORBIFLY MET'MAP TEAM :

Programming & Development : Alexandra Zaïnal
Concept & original design : Baudouin d'Aumeries
Assistance for programming : Marc-Olivier Méhu
Technical & hardware support : Manuel Goepfert

Contact : metmap@orbifly.com




SOURCES & CREDITS :

   NOAA